ACA843 EDDF-CYYZ
Flight info
| Callsign | ACA843 |
|---|---|
| Flight time | N/A |
| Altitude | 34000 |
| Route | OBOKA3W OBOKA Z28 DIBIR DCT BUDIP DCT RAVLO Y70 OTBED L60 PENIL M144 BAGSO DCT ADBUS DCT DOGAL/M084F360 DCT 54N020W 53N030W 5130N04000W 50N050W DCT ELSIR/N0480F380 N412A MIILS DCT VILRO DCT SAVEX Q806 TUKIR RAGID6 |
| Aircraft | B77W/H-SDE1E2E3FGHIJ2J3J4J5M1RWXY/LB1D1 |
Departure
| Time | N/A |
|---|---|
| Airport | Frankfurt Main Airport (EDDF) |
Arrival
| Time | 2026-05-07 11:32 |
|---|---|
| Airport | Toronto Pearson International Airport (CYYZ) |
| Time | Latitude | Longitude | Altitude | Speed | Heading |
|---|---|---|---|---|---|
| 2026-05-07 11:12 | 43.92775 | -79.05423 | 14744 ft | 276 kts | 241° |
| 2026-05-07 11:12 | 43.91741 | -79.07671 | 14478 ft | 271 kts | 241° |
| 2026-05-07 11:12 | 43.90745 | -79.09833 | 14206 ft | 267 kts | 241° |
| 2026-05-07 11:13 | 43.89752 | -79.11991 | 13963 ft | 265 kts | 241° |
| 2026-05-07 11:13 | 43.88761 | -79.14144 | 13681 ft | 265 kts | 241° |
| 2026-05-07 11:13 | 43.87769 | -79.16297 | 13388 ft | 265 kts | 241° |
| 2026-05-07 11:13 | 43.86779 | -79.18444 | 13115 ft | 264 kts | 241° |
| 2026-05-07 11:14 | 43.85797 | -79.20569 | 12872 ft | 260 kts | 241° |
| 2026-05-07 11:14 | 43.84827 | -79.22666 | 12563 ft | 257 kts | 241° |
| 2026-05-07 11:14 | 43.83866 | -79.24745 | 12239 ft | 255 kts | 240° |
| 2026-05-07 11:14 | 43.82911 | -79.26809 | 11906 ft | 254 kts | 240° |
| 2026-05-07 11:15 | 43.81962 | -79.28859 | 11582 ft | 252 kts | 240° |
| 2026-05-07 11:15 | 43.81010 | -79.30913 | 11265 ft | 254 kts | 240° |
| 2026-05-07 11:15 | 43.80044 | -79.32998 | 10939 ft | 260 kts | 240° |
| 2026-05-07 11:15 | 43.79067 | -79.35113 | 10617 ft | 262 kts | 242° |
| 2026-05-07 11:16 | 43.78379 | -79.37383 | 10255 ft | 252 kts | 260° |
| 2026-05-07 11:16 | 43.78170 | -79.39749 | 10114 ft | 243 kts | 265° |
| 2026-05-07 11:16 | 43.78011 | -79.42032 | 9958 ft | 235 kts | 263° |
| 2026-05-07 11:16 | 43.77800 | -79.44291 | 9635 ft | 237 kts | 262° |
| 2026-05-07 11:17 | 43.77567 | -79.46562 | 9326 ft | 241 kts | 262° |
| 2026-05-07 11:17 | 43.77327 | -79.48882 | 8998 ft | 244 kts | 262° |
| 2026-05-07 11:17 | 43.77085 | -79.51215 | 8695 ft | 244 kts | 262° |
| 2026-05-07 11:17 | 43.76846 | -79.53534 | 8399 ft | 243 kts | 262° |
| 2026-05-07 11:18 | 43.76614 | -79.55794 | 8305 ft | 234 kts | 262° |
| 2026-05-07 11:18 | 43.76391 | -79.57957 | 8191 ft | 226 kts | 262° |
| 2026-05-07 11:18 | 43.76174 | -79.60068 | 8091 ft | 217 kts | 262° |
| 2026-05-07 11:18 | 43.75965 | -79.62085 | 7985 ft | 207 kts | 262° |
| 2026-05-07 11:19 | 43.75764 | -79.64030 | 7884 ft | 203 kts | 262° |
| 2026-05-07 11:19 | 43.75563 | -79.65976 | 7851 ft | 208 kts | 262° |
| 2026-05-07 11:19 | 43.75357 | -79.67980 | 7714 ft | 212 kts | 263° |
| 2026-05-07 11:19 | 43.75150 | -79.69998 | 7573 ft | 211 kts | 263° |
| 2026-05-07 11:20 | 43.74841 | -79.71952 | 7410 ft | 208 kts | 248° |
| 2026-05-07 11:20 | 43.74007 | -79.73582 | 7318 ft | 209 kts | 232° |
| 2026-05-07 11:20 | 43.72998 | -79.75060 | 7209 ft | 214 kts | 230° |
| 2026-05-07 11:20 | 43.71951 | -79.76547 | 7061 ft | 216 kts | 229° |
| 2026-05-07 11:21 | 43.70905 | -79.78038 | 6946 ft | 215 kts | 230° |
| 2026-05-07 11:21 | 43.69864 | -79.79533 | 6811 ft | 215 kts | 230° |
| 2026-05-07 11:21 | 43.68830 | -79.81023 | 6686 ft | 214 kts | 230° |
| 2026-05-07 11:21 | 43.67812 | -79.82496 | 6571 ft | 214 kts | 230° |
| 2026-05-07 11:22 | 43.66776 | -79.83997 | 6422 ft | 213 kts | 230° |
| 2026-05-07 11:22 | 43.65749 | -79.85483 | 6315 ft | 213 kts | 230° |
| 2026-05-07 11:22 | 43.64739 | -79.86942 | 6197 ft | 213 kts | 230° |
| 2026-05-07 11:22 | 43.63712 | -79.88424 | 6059 ft | 213 kts | 230° |
| 2026-05-07 11:23 | 43.62691 | -79.89896 | 5932 ft | 213 kts | 230° |
| 2026-05-07 11:23 | 43.61666 | -79.91372 | 5811 ft | 212 kts | 230° |
| 2026-05-07 11:23 | 43.60647 | -79.92839 | 5673 ft | 212 kts | 230° |
| 2026-05-07 11:23 | 43.59625 | -79.94309 | 5568 ft | 212 kts | 230° |
| 2026-05-07 11:24 | 43.58607 | -79.95775 | 5451 ft | 211 kts | 230° |
| 2026-05-07 11:24 | 43.57591 | -79.97238 | 5307 ft | 211 kts | 230° |
| 2026-05-07 11:24 | 43.56575 | -79.98699 | 5200 ft | 210 kts | 230° |
| 2026-05-07 11:24 | 43.55565 | -80.00150 | 5090 ft | 210 kts | 230° |
| 2026-05-07 11:25 | 43.54540 | -80.01582 | 4909 ft | 210 kts | 224° |
| 2026-05-07 11:25 | 43.53174 | -80.02349 | 4657 ft | 222 kts | 186° |
| 2026-05-07 11:25 | 43.51671 | -80.01831 | 4520 ft | 229 kts | 155° |
| 2026-05-07 11:25 | 43.50487 | -80.00399 | 4375 ft | 234 kts | 128° |
| 2026-05-07 11:26 | 43.49881 | -79.98324 | 4205 ft | 235 kts | 98° |
| 2026-05-07 11:26 | 43.50023 | -79.96105 | 4078 ft | 232 kts | 76° |
| 2026-05-07 11:26 | 43.50441 | -79.93949 | 3942 ft | 234 kts | 73° |
| 2026-05-07 11:26 | 43.50881 | -79.91793 | 3768 ft | 233 kts | 73° |
| 2026-05-07 11:27 | 43.51468 | -79.89753 | 3615 ft | 228 kts | 55° |
| 2026-05-07 11:27 | 43.52460 | -79.88063 | 3493 ft | 227 kts | 45° |
| 2026-05-07 11:27 | 43.53543 | -79.86495 | 3346 ft | 224 kts | 44° |
| 2026-05-07 11:27 | 43.54620 | -79.84956 | 3209 ft | 223 kts | 44° |
| 2026-05-07 11:28 | 43.55678 | -79.83429 | 3062 ft | 214 kts | 44° |
| 2026-05-07 11:28 | 43.56658 | -79.82006 | 2894 ft | 194 kts | 44° |
| 2026-05-07 11:28 | 43.57536 | -79.80732 | 2763 ft | 172 kts | 44° |
| 2026-05-07 11:28 | 43.58328 | -79.79583 | 2632 ft | 160 kts | 44° |
| 2026-05-07 11:29 | 43.59088 | -79.78484 | 2560 ft | 159 kts | 44° |
| 2026-05-07 11:29 | 43.59853 | -79.77377 | 2440 ft | 159 kts | 44° |
| 2026-05-07 11:29 | 43.60613 | -79.76275 | 2299 ft | 158 kts | 44° |
| 2026-05-07 11:29 | 43.61367 | -79.75181 | 2168 ft | 157 kts | 44° |
| 2026-05-07 11:30 | 43.62109 | -79.74105 | 2078 ft | 152 kts | 44° |
| 2026-05-07 11:30 | 43.62835 | -79.73052 | 1993 ft | 151 kts | 44° |
| 2026-05-07 11:30 | 43.63572 | -79.71982 | 1783 ft | 154 kts | 45° |
| 2026-05-07 11:30 | 43.64294 | -79.70934 | 1528 ft | 150 kts | 45° |
| 2026-05-07 11:31 | 43.65006 | -79.69901 | 1314 ft | 147 kts | 45° |
| 2026-05-07 11:31 | 43.65694 | -79.68900 | 1098 ft | 141 kts | 45° |
| 2026-05-07 11:31 | 43.66381 | -79.67911 | 891 ft | 141 kts | 43° |
| 2026-05-07 11:31 | 43.67040 | -79.66956 | 743 ft | 140 kts | 46° |
| 2026-05-07 11:32 | 43.68344 | -79.65093 | 577 ft | 114 kts | 49° |
| 2026-05-07 11:32 | 43.68764 | -79.64454 | 574 ft | 62 kts | 45° |
| 2026-05-07 11:32 | 43.69047 | -79.64045 | 575 ft | 49 kts | 46° |
| 2026-05-07 11:33 | 43.69170 | -79.63835 | 574 ft | 17 kts | 86° |
| 2026-05-07 11:33 | 43.69080 | -79.63678 | 575 ft | 25 kts | 137° |
| 2026-05-07 11:33 | 43.68955 | -79.63516 | 574 ft | 22 kts | 135° |
| 2026-05-07 11:33 | 43.68832 | -79.63354 | 572 ft | 28 kts | 136° |
| 2026-05-07 11:34 | 43.68690 | -79.63168 | 572 ft | 27 kts | 136° |
| 2026-05-07 11:34 | 43.68572 | -79.63015 | 575 ft | 22 kts | 137° |
| 2026-05-07 11:34 | 43.68454 | -79.62862 | 568 ft | 15 kts | 136° |
| 2026-05-07 11:34 | 43.68364 | -79.62743 | 575 ft | 21 kts | 136° |
| 2026-05-07 11:35 | 43.68242 | -79.62586 | 571 ft | 28 kts | 137° |
| 2026-05-07 11:35 | 43.68131 | -79.62444 | 572 ft | 10 kts | 137° |
| 2026-05-07 11:35 | 43.68075 | -79.62371 | 573 ft | 12 kts | 136° |
| 2026-05-07 11:35 | 43.68008 | -79.62284 | 573 ft | 14 kts | 136° |
| 2026-05-07 11:36 | 43.67941 | -79.62196 | 572 ft | 13 kts | 136° |
| 2026-05-07 11:36 | 43.67899 | -79.62086 | 574 ft | 14 kts | 119° |
| 2026-05-07 11:36 | 43.67828 | -79.61981 | 572 ft | 15 kts | 136° |
| 2026-05-07 11:36 | 43.67749 | -79.61877 | 571 ft | 16 kts | 136° |
| 2026-05-07 11:37 | 43.67667 | -79.61771 | 571 ft | 17 kts | 136° |
| 2026-05-07 11:37 | 43.67584 | -79.61661 | 571 ft | 17 kts | 137° |
| 2026-05-07 11:37 | 43.67503 | -79.61557 | 575 ft | 14 kts | 137° |
| 2026-05-07 11:37 | 43.67439 | -79.61475 | 574 ft | 12 kts | 136° |
| 2026-05-07 11:38 | 43.67384 | -79.61397 | 576 ft | 10 kts | 122° |
| 2026-05-07 11:38 | 43.67406 | -79.61309 | 574 ft | 11 kts | 34° |
| 2026-05-07 11:38 | 43.67466 | -79.61258 | 575 ft | 9 kts | 53° |
| 2026-05-07 11:38 | 43.67478 | -79.61152 | 566 ft | 13 kts | 85° |
| 2026-05-07 11:39 | 43.67498 | -79.61029 | 571 ft | 14 kts | 70° |
| 2026-05-07 11:39 | 43.67508 | -79.60996 | 569 ft | 4 kts | 69° |
| 2026-05-07 11:39 | 43.67523 | -79.60955 | 572 ft | 5 kts | 60° |
| 2026-05-07 11:39 | 43.67548 | -79.60909 | 571 ft | 6 kts | 49° |
| 2026-05-07 11:40 | 43.67576 | -79.60878 | 574 ft | 3 kts | 18° |
| 2026-05-07 11:40 | 43.67597 | -79.60885 | 575 ft | 3 kts | 334° |
| 2026-05-07 11:40 | 43.67618 | -79.60909 | 574 ft | 4 kts | 312° |
| 2026-05-07 11:40 | 43.67633 | -79.60939 | 575 ft | 3 kts | 303° |
| 2026-05-07 11:41 | 43.67643 | -79.60960 | 575 ft | 1 kts | 304° |
| 2026-05-07 11:41 | 43.67646 | -79.60967 | 575 ft | 0 kts | 303° |
| 2026-05-07 11:41 | 43.67647 | -79.60969 | 575 ft | 1 kts | 303° |
| 2026-05-07 11:41 | 43.67648 | -79.60970 | 575 ft | 0 kts | 303° |